WSAP/QPG METAR and TAF weather

Enter ICAO airport designator
Station Type Date Time Source
WSAP METAR 2020/03/29 21:00 UTC NOAA

WSAP 292100Z 00000KT 9999 FEW018 BKN300 27/23 Q1008


Station Type Date Time Source
WSAP Decoded METAR 2020/03/29 21:00 UTC NOAA

Singapore / Paya Lebar, Singapore (WSAP) 01-22N 103-55E 32M
Mar 29, 2020 - 05:00 PM EDT / 2020.03.29 2100 UTC
Wind: Calm:0
Visibility: greater than 7 mile(s):0
Sky conditions: mostly cloudy
Temperature: 80 F (27 C)
Dew Point: 73 F (23 C)
Relative Humidity: 78%
Pressure (altimeter): 29.77 in. Hg (1008 hPa)
ob: WSAP 292100Z 00000KT 9999 FEW018 BKN300 27/23 Q1008
cycle: 21

Station Type Date Time Source
WSAP TAF 2020/03/29 18:09 UTC NOAA

TAF WSAP 291700Z 2918/3100 03007KT 9999 FEW015 SCT020

Example: see airport list